首页
METAR-TAF:

METAR-TAF

机场 :

蘇黎世機場

苏黎世, 瑞士

纬度: 47-29N, 经度: 008-32E, 海拔: 436米

当前天气观测

该预报发布于32分钟前的17:20 UTC
风速4节,风向西北
温度 6°C
湿度 52%
气压 1030 hPa
能见度10公里或以上
1500米以下无云,无积雨云

METAR: LSZH 211720Z 32004KT CAVOK 06/M03 Q1030 NOSIG

时间: 18:52 (17:52 UTC)

预报

该预报发布于3小时和27分钟前的14:25 UTC
预报有效从21日的 15点(UTC)到 22日的 21点(UTC)
风速4节,风向西
能见度10公里或以上
1500米以下无云,无积雨云
几率 40%
从 22日的 03点(UTC)到 22日的 07点(UTC)
能見度: 4500
浅雾

TAF: LSZH 211425Z 2115/2221 26004KT CAVOK TX10/2115Z TNM03/2205Z TX13/2214Z PROB40 2203/2207 4500 MIFG NSC

超过4000个机场的气象观测和天气预报(METAR&TAF报告)。

可查询的气象台以黄色和红色小点在地图上表示。

将鼠标移到小点上方,可查看气象台名称。

然后点击查看天气观测和预报。

如需切换地图:点击带黑十字的绿色按钮放大地图;点击带横线的绿色按钮缩小地图;或者点击绿色箭头查看邻近地区的地图。


METAR-TAF: